sensor_id;sensor_type;location;lat;lon;timestamp;P1;durP1;ratioP1;P2;durP2;ratioP2
51866;SDS011;52862;52.504;13.480;2023-02-17T00:00:18;59.47;;;26.53;;
51866;SDS011;52862;52.504;13.480;2023-02-17T00:02:45;67.10;;;28.60;;
51866;SDS011;52862;52.504;13.480;2023-02-17T00:05:13;56.10;;;28.03;;
51866;SDS011;52862;52.504;13.480;2023-02-17T00:07:40;60.20;;;29.00;;
51866;SDS011;52862;52.504;13.480;2023-02-17T00:10:07;62.33;;;28.10;;
51866;SDS011;52862;52.504;13.480;2023-02-17T00:12:34;61.87;;;29.37;;
51866;SDS011;52862;52.504;13.480;2023-02-17T00:15:01;57.67;;;29.33;;
51866;SDS011;52862;52.504;13.480;2023-02-17T00:17:28;67.73;;;29.23;;
51866;SDS011;52862;52.504;13.480;2023-02-17T00:19:55;56.60;;;29.27;;
51866;SDS011;52862;52.504;13.480;2023-02-17T00:22:26;58.20;;;28.20;;
51866;SDS011;52862;52.504;13.480;2023-02-17T00:24:53;60.70;;;29.23;;
51866;SDS011;52862;52.504;13.480;2023-02-17T00:27:20;68.00;;;29.30;;
51866;SDS011;52862;52.504;13.480;2023-02-17T00:29:47;64.40;;;31.27;;
51866;SDS011;52862;52.504;13.480;2023-02-17T00:32:14;63.13;;;29.00;;
51866;SDS011;52862;52.504;13.480;2023-02-17T00:34:40;48.37;;;22.87;;
51866;SDS011;52862;52.504;13.480;2023-02-17T00:37:07;64.73;;;31.63;;
51866;SDS011;52862;52.504;13.480;2023-02-17T00:39:34;63.70;;;29.93;;
51866;SDS011;52862;52.504;13.480;2023-02-17T00:42:01;72.83;;;30.60;;
51866;SDS011;52862;52.504;13.480;2023-02-17T00:44:28;64.60;;;30.80;;
51866;SDS011;52862;52.504;13.480;2023-02-17T00:46:55;57.53;;;28.73;;
51866;SDS011;52862;52.504;13.480;2023-02-17T00:49:22;72.97;;;31.27;;
51866;SDS011;52862;52.504;13.480;2023-02-17T00:51:50;69.50;;;31.53;;
51866;SDS011;52862;52.504;13.480;2023-02-17T00:54:18;70.13;;;30.40;;
51866;SDS011;52862;52.504;13.480;2023-02-17T00:56:45;65.03;;;30.47;;
51866;SDS011;52862;52.504;13.480;2023-02-17T00:59:12;60.97;;;30.73;;
51866;SDS011;52862;52.504;13.480;2023-02-17T01:01:39;60.57;;;30.20;;
51866;SDS011;52862;52.504;13.480;2023-02-17T01:04:05;67.17;;;32.33;;
51866;SDS011;52862;52.504;13.480;2023-02-17T01:06:33;69.67;;;31.97;;
51866;SDS011;52862;52.504;13.480;2023-02-17T01:09:02;64.90;;;31.37;;
51866;SDS011;52862;52.504;13.480;2023-02-17T01:11:31;62.77;;;31.63;;
51866;SDS011;52862;52.504;13.480;2023-02-17T01:14:00;74.27;;;31.83;;
51866;SDS011;52862;52.504;13.480;2023-02-17T01:16:31;76.37;;;31.73;;
51866;SDS011;52862;52.504;13.480;2023-02-17T01:19:00;80.93;;;33.70;;
51866;SDS011;52862;52.504;13.480;2023-02-17T01:21:29;70.60;;;31.67;;
51866;SDS011;52862;52.504;13.480;2023-02-17T01:23:57;63.23;;;31.40;;
51866;SDS011;52862;52.504;13.480;2023-02-17T01:26:26;65.57;;;31.47;;
51866;SDS011;52862;52.504;13.480;2023-02-17T01:28:55;76.63;;;32.83;;
51866;SDS011;52862;52.504;13.480;2023-02-17T01:31:23;65.43;;;30.87;;
51866;SDS011;52862;52.504;13.480;2023-02-17T01:33:51;67.90;;;30.40;;
51866;SDS011;52862;52.504;13.480;2023-02-17T01:36:18;71.53;;;34.37;;
51866;SDS011;52862;52.504;13.480;2023-02-17T01:38:45;72.80;;;33.17;;
51866;SDS011;52862;52.504;13.480;2023-02-17T01:41:13;65.83;;;32.47;;
51866;SDS011;52862;52.504;13.480;2023-02-17T01:43:41;61.90;;;30.73;;
51866;SDS011;52862;52.504;13.480;2023-02-17T01:46:08;63.53;;;32.03;;
51866;SDS011;52862;52.504;13.480;2023-02-17T01:48:36;74.73;;;31.67;;
51866;SDS011;52862;52.504;13.480;2023-02-17T01:51:07;66.90;;;33.43;;
51866;SDS011;52862;52.504;13.480;2023-02-17T01:53:38;78.33;;;33.17;;
51866;SDS011;52862;52.504;13.480;2023-02-17T01:56:07;66.73;;;32.10;;
51866;SDS011;52862;52.504;13.480;2023-02-17T01:58:36;66.40;;;30.30;;
51866;SDS011;52862;52.504;13.480;2023-02-17T02:01:05;69.73;;;32.80;;
51866;SDS011;52862;52.504;13.480;2023-02-17T02:03:33;68.57;;;31.93;;
51866;SDS011;52862;52.504;13.480;2023-02-17T02:06:02;65.27;;;30.77;;
51866;SDS011;52862;52.504;13.480;2023-02-17T02:08:35;74.37;;;35.03;;
51866;SDS011;52862;52.504;13.480;2023-02-17T02:11:09;72.60;;;30.17;;
51866;SDS011;52862;52.504;13.480;2023-02-17T02:13:36;75.90;;;33.33;;
51866;SDS011;52862;52.504;13.480;2023-02-17T02:16:04;61.03;;;29.30;;
51866;SDS011;52862;52.504;13.480;2023-02-17T02:22:05;78.13;;;35.00;;
51866;SDS011;52862;52.504;13.480;2023-02-17T02:24:53;76.27;;;34.40;;
51866;SDS011;52862;52.504;13.480;2023-02-17T02:27:41;75.67;;;34.60;;
51866;SDS011;52862;52.504;13.480;2023-02-17T02:33:23;76.57;;;37.13;;
51866;SDS011;52862;52.504;13.480;2023-02-17T02:35:56;73.20;;;35.30;;
51866;SDS011;52862;52.504;13.480;2023-02-17T02:38:29;83.57;;;38.73;;
51866;SDS011;52862;52.504;13.480;2023-02-17T02:41:03;76.10;;;35.00;;
51866;SDS011;52862;52.504;13.480;2023-02-17T02:43:34;75.40;;;35.33;;
51866;SDS011;52862;52.504;13.480;2023-02-17T02:46:02;77.93;;;37.33;;
51866;SDS011;52862;52.504;13.480;2023-02-17T02:48:30;85.37;;;38.93;;
51866;SDS011;52862;52.504;13.480;2023-02-17T02:51:12;97.03;;;38.63;;
51866;SDS011;52862;52.504;13.480;2023-02-17T02:53:51;81.07;;;36.93;;
51866;SDS011;52862;52.504;13.480;2023-02-17T02:56:38;92.80;;;38.63;;
51866;SDS011;52862;52.504;13.480;2023-02-17T02:59:17;82.23;;;37.67;;
51866;SDS011;52862;52.504;13.480;2023-02-17T03:01:56;87.20;;;40.17;;
51866;SDS011;52862;52.504;13.480;2023-02-17T03:04:33;101.10;;;38.90;;
51866;SDS011;52862;52.504;13.480;2023-02-17T03:07:04;84.17;;;37.03;;
51866;SDS011;52862;52.504;13.480;2023-02-17T03:09:35;83.90;;;40.90;;
51866;SDS011;52862;52.504;13.480;2023-02-17T03:12:03;98.20;;;38.47;;
51866;SDS011;52862;52.504;13.480;2023-02-17T03:14:30;93.73;;;41.50;;
51866;SDS011;52862;52.504;13.480;2023-02-17T03:17:02;90.77;;;39.37;;
51866;SDS011;52862;52.504;13.480;2023-02-17T03:19:29;84.03;;;39.13;;
51866;SDS011;52862;52.504;13.480;2023-02-17T03:21:58;103.80;;;40.77;;
51866;SDS011;52862;52.504;13.480;2023-02-17T03:24:31;97.17;;;41.03;;
51866;SDS011;52862;52.504;13.480;2023-02-17T03:26:58;93.13;;;40.27;;
51866;SDS011;52862;52.504;13.480;2023-02-17T03:29:25;84.30;;;35.27;;
51866;SDS011;52862;52.504;13.480;2023-02-17T03:31:52;93.50;;;40.33;;
51866;SDS011;52862;52.504;13.480;2023-02-17T03:34:19;98.27;;;42.67;;
51866;SDS011;52862;52.504;13.480;2023-02-17T03:36:45;112.37;;;41.87;;
51866;SDS011;52862;52.504;13.480;2023-02-17T03:39:13;91.67;;;42.47;;
51866;SDS011;52862;52.504;13.480;2023-02-17T03:41:39;97.23;;;40.90;;
51866;SDS011;52862;52.504;13.480;2023-02-17T03:44:06;86.27;;;37.73;;
51866;SDS011;52862;52.504;13.480;2023-02-17T03:46:33;84.57;;;38.60;;
51866;SDS011;52862;52.504;13.480;2023-02-17T03:49:00;93.63;;;38.87;;
51866;SDS011;52862;52.504;13.480;2023-02-17T03:51:27;96.67;;;40.63;;
51866;SDS011;52862;52.504;13.480;2023-02-17T03:53:54;99.33;;;39.60;;
51866;SDS011;52862;52.504;13.480;2023-02-17T03:56:21;81.87;;;36.53;;
51866;SDS011;52862;52.504;13.480;2023-02-17T03:58:48;89.57;;;39.93;;
51866;SDS011;52862;52.504;13.480;2023-02-17T04:01:15;98.23;;;37.50;;
51866;SDS011;52862;52.504;13.480;2023-02-17T04:03:42;95.83;;;38.13;;
51866;SDS011;52862;52.504;13.480;2023-02-17T04:06:09;91.47;;;40.13;;
51866;SDS011;52862;52.504;13.480;2023-02-17T04:08:36;100.77;;;42.20;;
51866;SDS011;52862;52.504;13.480;2023-02-17T04:11:04;102.80;;;38.50;;
51866;SDS011;52862;52.504;13.480;2023-02-17T04:13:33;98.70;;;40.37;;
51866;SDS011;52862;52.504;13.480;2023-02-17T04:16:01;95.97;;;41.87;;
51866;SDS011;52862;52.504;13.480;2023-02-17T04:18:29;96.70;;;41.17;;
51866;SDS011;52862;52.504;13.480;2023-02-17T04:20:56;96.03;;;41.43;;
51866;SDS011;52862;52.504;13.480;2023-02-17T04:23:23;88.50;;;40.87;;
51866;SDS011;52862;52.504;13.480;2023-02-17T04:25:50;101.13;;;42.37;;
51866;SDS011;52862;52.504;13.480;2023-02-17T04:28:17;90.70;;;40.73;;
51866;SDS011;52862;52.504;13.480;2023-02-17T04:30:45;87.20;;;39.87;;
51866;SDS011;52862;52.504;13.480;2023-02-17T04:33:12;84.87;;;35.97;;
51866;SDS011;52862;52.504;13.480;2023-02-17T04:35:39;97.67;;;41.17;;
51866;SDS011;52862;52.504;13.480;2023-02-17T04:38:06;88.40;;;40.57;;
51866;SDS011;52862;52.504;13.480;2023-02-17T04:40:34;92.50;;;39.87;;
51866;SDS011;52862;52.504;13.480;2023-02-17T04:43:01;89.60;;;40.77;;
51866;SDS011;52862;52.504;13.480;2023-02-17T04:45:28;87.77;;;39.43;;
51866;SDS011;52862;52.504;13.480;2023-02-17T04:47:56;90.80;;;40.23;;
51866;SDS011;52862;52.504;13.480;2023-02-17T04:50:23;99.30;;;42.10;;
51866;SDS011;52862;52.504;13.480;2023-02-17T04:52:49;85.57;;;40.57;;
51866;SDS011;52862;52.504;13.480;2023-02-17T04:55:16;92.00;;;40.40;;
51866;SDS011;52862;52.504;13.480;2023-02-17T04:57:43;78.37;;;33.87;;
51866;SDS011;52862;52.504;13.480;2023-02-17T05:00:11;81.23;;;36.30;;
51866;SDS011;52862;52.504;13.480;2023-02-17T05:02:38;96.90;;;39.43;;
51866;SDS011;52862;52.504;13.480;2023-02-17T05:05:06;89.93;;;38.87;;
51866;SDS011;52862;52.504;13.480;2023-02-17T05:07:32;83.73;;;37.33;;
51866;SDS011;52862;52.504;13.480;2023-02-17T05:09:59;91.47;;;40.87;;
51866;SDS011;52862;52.504;13.480;2023-02-17T05:12:26;89.00;;;36.97;;
51866;SDS011;52862;52.504;13.480;2023-02-17T05:14:53;93.63;;;41.83;;
51866;SDS011;52862;52.504;13.480;2023-02-17T05:17:19;95.40;;;38.47;;
51866;SDS011;52862;52.504;13.480;2023-02-17T05:19:46;96.87;;;38.40;;
51866;SDS011;52862;52.504;13.480;2023-02-17T05:22:13;107.10;;;41.10;;
51866;SDS011;52862;52.504;13.480;2023-02-17T05:24:40;86.57;;;38.07;;
51866;SDS011;52862;52.504;13.480;2023-02-17T05:27:07;95.80;;;41.10;;
51866;SDS011;52862;52.504;13.480;2023-02-17T05:29:34;93.30;;;38.70;;
51866;SDS011;52862;52.504;13.480;2023-02-17T05:32:00;92.07;;;40.17;;
51866;SDS011;52862;52.504;13.480;2023-02-17T05:34:27;82.83;;;37.87;;
51866;SDS011;52862;52.504;13.480;2023-02-17T05:36:54;97.97;;;40.63;;
51866;SDS011;52862;52.504;13.480;2023-02-17T05:39:22;92.67;;;39.20;;
51866;SDS011;52862;52.504;13.480;2023-02-17T05:41:48;87.33;;;37.90;;
51866;SDS011;52862;52.504;13.480;2023-02-17T05:44:15;89.47;;;40.73;;
51866;SDS011;52862;52.504;13.480;2023-02-17T05:46:42;90.00;;;39.93;;
51866;SDS011;52862;52.504;13.480;2023-02-17T05:49:09;84.47;;;36.37;;
51866;SDS011;52862;52.504;13.480;2023-02-17T05:51:36;92.40;;;38.47;;
51866;SDS011;52862;52.504;13.480;2023-02-17T05:54:02;95.60;;;39.53;;
51866;SDS011;52862;52.504;13.480;2023-02-17T05:56:30;95.53;;;40.20;;
51866;SDS011;52862;52.504;13.480;2023-02-17T05:58:57;95.63;;;40.43;;
51866;SDS011;52862;52.504;13.480;2023-02-17T06:01:25;92.70;;;39.60;;
51866;SDS011;52862;52.504;13.480;2023-02-17T06:03:51;85.77;;;38.03;;
51866;SDS011;52862;52.504;13.480;2023-02-17T06:06:18;82.53;;;36.77;;
51866;SDS011;52862;52.504;13.480;2023-02-17T06:08:45;105.03;;;39.60;;
51866;SDS011;52862;52.504;13.480;2023-02-17T06:11:12;96.20;;;37.87;;
51866;SDS011;52862;52.504;13.480;2023-02-17T06:13:39;85.67;;;33.73;;
51866;SDS011;52862;52.504;13.480;2023-02-17T06:16:06;83.87;;;35.87;;
51866;SDS011;52862;52.504;13.480;2023-02-17T06:18:33;78.23;;;32.10;;
51866;SDS011;52862;52.504;13.480;2023-02-17T06:21:00;86.60;;;39.53;;
51866;SDS011;52862;52.504;13.480;2023-02-17T06:23:27;87.83;;;36.10;;
51866;SDS011;52862;52.504;13.480;2023-02-17T06:25:54;68.43;;;29.27;;
51866;SDS011;52862;52.504;13.480;2023-02-17T06:28:20;77.57;;;33.80;;
51866;SDS011;52862;52.504;13.480;2023-02-17T06:30:48;79.40;;;33.67;;
51866;SDS011;52862;52.504;13.480;2023-02-17T06:33:14;76.10;;;33.57;;
51866;SDS011;52862;52.504;13.480;2023-02-17T06:35:41;70.10;;;32.63;;
51866;SDS011;52862;52.504;13.480;2023-02-17T06:38:09;80.67;;;33.77;;
51866;SDS011;52862;52.504;13.480;2023-02-17T06:40:35;68.67;;;34.30;;
51866;SDS011;52862;52.504;13.480;2023-02-17T06:43:02;75.33;;;34.73;;
51866;SDS011;52862;52.504;13.480;2023-02-17T06:45:29;77.30;;;31.33;;
51866;SDS011;52862;52.504;13.480;2023-02-17T06:47:56;63.37;;;31.10;;
51866;SDS011;52862;52.504;13.480;2023-02-17T06:50:23;68.03;;;30.80;;
51866;SDS011;52862;52.504;13.480;2023-02-17T06:52:50;67.97;;;31.00;;
51866;SDS011;52862;52.504;13.480;2023-02-17T06:55:16;66.47;;;33.20;;
51866;SDS011;52862;52.504;13.480;2023-02-17T06:57:43;70.37;;;30.23;;
51866;SDS011;52862;52.504;13.480;2023-02-17T07:00:10;60.47;;;31.33;;
51866;SDS011;52862;52.504;13.480;2023-02-17T07:02:37;61.40;;;29.73;;
51866;SDS011;52862;52.504;13.480;2023-02-17T07:05:05;62.70;;;29.50;;
51866;SDS011;52862;52.504;13.480;2023-02-17T07:07:32;64.70;;;28.93;;
51866;SDS011;52862;52.504;13.480;2023-02-17T07:09:59;63.40;;;28.00;;
51866;SDS011;52862;52.504;13.480;2023-02-17T07:12:28;60.07;;;28.13;;
51866;SDS011;52862;52.504;13.480;2023-02-17T07:14:54;49.30;;;26.87;;
51866;SDS011;52862;52.504;13.480;2023-02-17T07:17:21;60.47;;;27.70;;
51866;SDS011;52862;52.504;13.480;2023-02-17T07:19:49;51.83;;;24.87;;
51866;SDS011;52862;52.504;13.480;2023-02-17T07:22:16;50.00;;;25.23;;
51866;SDS011;52862;52.504;13.480;2023-02-17T07:24:43;51.07;;;25.60;;
51866;SDS011;52862;52.504;13.480;2023-02-17T07:27:10;48.53;;;24.30;;
51866;SDS011;52862;52.504;13.480;2023-02-17T07:29:37;54.43;;;22.50;;
51866;SDS011;52862;52.504;13.480;2023-02-17T07:32:04;46.60;;;24.30;;
51866;SDS011;52862;52.504;13.480;2023-02-17T07:34:31;50.87;;;25.63;;
51866;SDS011;52862;52.504;13.480;2023-02-17T07:36:58;52.83;;;26.17;;
51866;SDS011;52862;52.504;13.480;2023-02-17T07:39:25;49.90;;;23.17;;
51866;SDS011;52862;52.504;13.480;2023-02-17T07:41:52;45.93;;;23.30;;
51866;SDS011;52862;52.504;13.480;2023-02-17T07:44:19;55.47;;;22.87;;
51866;SDS011;52862;52.504;13.480;2023-02-17T07:46:46;45.17;;;23.03;;
51866;SDS011;52862;52.504;13.480;2023-02-17T07:49:12;46.50;;;22.17;;
51866;SDS011;52862;52.504;13.480;2023-02-17T07:51:39;45.77;;;22.67;;
51866;SDS011;52862;52.504;13.480;2023-02-17T07:54:06;44.43;;;20.53;;
51866;SDS011;52862;52.504;13.480;2023-02-17T07:56:34;46.10;;;21.67;;
51866;SDS011;52862;52.504;13.480;2023-02-17T07:59:01;43.73;;;20.23;;
51866;SDS011;52862;52.504;13.480;2023-02-17T08:01:27;41.93;;;21.37;;
51866;SDS011;52862;52.504;13.480;2023-02-17T08:03:55;44.27;;;20.17;;
51866;SDS011;52862;52.504;13.480;2023-02-17T08:06:23;39.50;;;21.63;;
51866;SDS011;52862;52.504;13.480;2023-02-17T08:08:51;48.73;;;20.33;;
51866;SDS011;52862;52.504;13.480;2023-02-17T08:11:37;43.97;;;22.77;;
51866;SDS011;52862;52.504;13.480;2023-02-17T08:14:22;41.77;;;22.07;;
51866;SDS011;52862;52.504;13.480;2023-02-17T08:16:50;39.73;;;20.43;;
51866;SDS011;52862;52.504;13.480;2023-02-17T08:19:17;37.13;;;16.80;;
51866;SDS011;52862;52.504;13.480;2023-02-17T08:21:44;35.10;;;19.50;;
51866;SDS011;52862;52.504;13.480;2023-02-17T08:24:12;45.50;;;21.07;;
51866;SDS011;52862;52.504;13.480;2023-02-17T08:26:40;44.50;;;20.40;;
51866;SDS011;52862;52.504;13.480;2023-02-17T08:29:07;37.17;;;19.70;;
51866;SDS011;52862;52.504;13.480;2023-02-17T08:31:34;52.27;;;22.07;;
51866;SDS011;52862;52.504;13.480;2023-02-17T08:34:03;35.83;;;18.33;;
51866;SDS011;52862;52.504;13.480;2023-02-17T08:36:32;39.20;;;20.37;;
51866;SDS011;52862;52.504;13.480;2023-02-17T08:39:02;37.40;;;21.77;;
51866;SDS011;52862;52.504;13.480;2023-02-17T08:41:29;41.13;;;20.47;;
51866;SDS011;52862;52.504;13.480;2023-02-17T08:43:59;41.93;;;21.27;;
51866;SDS011;52862;52.504;13.480;2023-02-17T08:46:27;41.53;;;21.60;;
51866;SDS011;52862;52.504;13.480;2023-02-17T08:48:54;45.53;;;21.50;;
51866;SDS011;52862;52.504;13.480;2023-02-17T08:51:22;38.10;;;20.63;;
51866;SDS011;52862;52.504;13.480;2023-02-17T08:53:51;45.67;;;20.47;;
51866;SDS011;52862;52.504;13.480;2023-02-17T08:56:19;37.77;;;21.07;;
51866;SDS011;52862;52.504;13.480;2023-02-17T08:58:46;44.77;;;21.80;;
51866;SDS011;52862;52.504;13.480;2023-02-17T09:01:14;36.47;;;21.33;;
51866;SDS011;52862;52.504;13.480;2023-02-17T09:03:42;42.93;;;21.30;;
51866;SDS011;52862;52.504;13.480;2023-02-17T09:06:10;37.50;;;21.20;;
51866;SDS011;52862;52.504;13.480;2023-02-17T09:08:38;41.00;;;20.67;;
51866;SDS011;52862;52.504;13.480;2023-02-17T09:11:05;39.93;;;20.33;;
51866;SDS011;52862;52.504;13.480;2023-02-17T09:13:35;34.30;;;17.57;;
51866;SDS011;52862;52.504;13.480;2023-02-17T09:16:02;46.83;;;18.03;;
51866;SDS011;52862;52.504;13.480;2023-02-17T09:18:30;35.93;;;19.13;;
51866;SDS011;52862;52.504;13.480;2023-02-17T09:20:56;31.87;;;17.13;;
51866;SDS011;52862;52.504;13.480;2023-02-17T09:23:25;34.13;;;18.77;;
51866;SDS011;52862;52.504;13.480;2023-02-17T09:25:59;38.03;;;20.57;;
51866;SDS011;52862;52.504;13.480;2023-02-17T09:28:27;43.80;;;21.60;;
51866;SDS011;52862;52.504;13.480;2023-02-17T09:30:54;38.27;;;19.17;;
51866;SDS011;52862;52.504;13.480;2023-02-17T09:33:21;41.13;;;18.10;;
51866;SDS011;52862;52.504;13.480;2023-02-17T09:35:48;35.70;;;19.20;;
51866;SDS011;52862;52.504;13.480;2023-02-17T09:38:16;37.20;;;19.73;;
51866;SDS011;52862;52.504;13.480;2023-02-17T09:40:44;37.53;;;21.27;;
51866;SDS011;52862;52.504;13.480;2023-02-17T09:43:14;36.57;;;19.77;;
51866;SDS011;52862;52.504;13.480;2023-02-17T09:45:43;46.93;;;21.60;;
51866;SDS011;52862;52.504;13.480;2023-02-17T09:48:14;38.80;;;20.47;;
51866;SDS011;52862;52.504;13.480;2023-02-17T09:50:44;38.93;;;21.80;;
51866;SDS011;52862;52.504;13.480;2023-02-17T09:53:20;40.60;;;20.70;;
51866;SDS011;52862;52.504;13.480;2023-02-17T09:55:55;33.30;;;19.17;;
51866;SDS011;52862;52.504;13.480;2023-02-17T09:58:23;37.87;;;22.17;;
51866;SDS011;52862;52.504;13.480;2023-02-17T10:00:56;40.20;;;19.97;;
51866;SDS011;52862;52.504;13.480;2023-02-17T10:03:27;41.07;;;20.73;;
51866;SDS011;52862;52.504;13.480;2023-02-17T10:06:03;36.17;;;20.57;;
51866;SDS011;52862;52.504;13.480;2023-02-17T10:08:39;43.03;;;21.70;;
51866;SDS011;52862;52.504;13.480;2023-02-17T10:11:13;35.83;;;20.27;;
51866;SDS011;52862;52.504;13.480;2023-02-17T10:14:15;41.60;;;22.27;;
51866;SDS011;52862;52.504;13.480;2023-02-17T10:16:47;46.17;;;22.70;;
51866;SDS011;52862;52.504;13.480;2023-02-17T10:19:18;42.73;;;21.13;;
51866;SDS011;52862;52.504;13.480;2023-02-17T10:21:54;43.80;;;22.33;;
51866;SDS011;52862;52.504;13.480;2023-02-17T10:24:26;38.87;;;20.67;;
51866;SDS011;52862;52.504;13.480;2023-02-17T10:26:56;47.47;;;22.50;;
51866;SDS011;52862;52.504;13.480;2023-02-17T10:29:34;38.53;;;19.20;;
51866;SDS011;52862;52.504;13.480;2023-02-17T10:32:40;40.73;;;22.17;;
51866;SDS011;52862;52.504;13.480;2023-02-17T10:35:16;48.37;;;25.20;;
51866;SDS011;52862;52.504;13.480;2023-02-17T10:37:48;41.83;;;22.27;;
51866;SDS011;52862;52.504;13.480;2023-02-17T10:40:20;39.67;;;22.27;;
51866;SDS011;52862;52.504;13.480;2023-02-17T10:42:49;44.27;;;23.37;;
51866;SDS011;52862;52.504;13.480;2023-02-17T10:45:23;48.37;;;24.63;;
51866;SDS011;52862;52.504;13.480;2023-02-17T10:47:57;50.57;;;25.10;;
51866;SDS011;52862;52.504;13.480;2023-02-17T10:50:28;46.13;;;25.23;;
51866;SDS011;52862;52.504;13.480;2023-02-17T10:52:56;44.00;;;23.50;;
51866;SDS011;52862;52.504;13.480;2023-02-17T10:55:29;40.77;;;22.37;;
51866;SDS011;52862;52.504;13.480;2023-02-17T10:58:02;42.10;;;21.23;;
51866;SDS011;52862;52.504;13.480;2023-02-17T11:00:35;42.93;;;21.20;;
51866;SDS011;52862;52.504;13.480;2023-02-17T11:03:03;40.67;;;21.07;;
51866;SDS011;52862;52.504;13.480;2023-02-17T11:05:31;43.83;;;22.13;;
51866;SDS011;52862;52.504;13.480;2023-02-17T11:07:59;32.53;;;17.23;;
51866;SDS011;52862;52.504;13.480;2023-02-17T11:10:30;42.37;;;22.00;;
51866;SDS011;52862;52.504;13.480;2023-02-17T11:12:58;39.23;;;21.27;;
51866;SDS011;52862;52.504;13.480;2023-02-17T11:15:26;37.53;;;21.93;;
51866;SDS011;52862;52.504;13.480;2023-02-17T11:17:55;41.63;;;22.13;;
51866;SDS011;52862;52.504;13.480;2023-02-17T11:20:28;39.87;;;20.80;;
51866;SDS011;52862;52.504;13.480;2023-02-17T11:23:00;44.07;;;21.90;;
51866;SDS011;52862;52.504;13.480;2023-02-17T11:25:30;47.10;;;21.27;;
51866;SDS011;52862;52.504;13.480;2023-02-17T11:27:59;43.23;;;22.00;;
51866;SDS011;52862;52.504;13.480;2023-02-17T11:30:27;32.63;;;18.23;;
51866;SDS011;52862;52.504;13.480;2023-02-17T11:32:55;29.00;;;15.13;;
51866;SDS011;52862;52.504;13.480;2023-02-17T11:35:23;35.37;;;20.43;;
51866;SDS011;52862;52.504;13.480;2023-02-17T11:37:59;32.07;;;18.00;;
51866;SDS011;52862;52.504;13.480;2023-02-17T11:40:27;34.33;;;18.30;;
51866;SDS011;52862;52.504;13.480;2023-02-17T11:42:56;35.90;;;20.40;;
51866;SDS011;52862;52.504;13.480;2023-02-17T11:45:25;33.63;;;18.40;;
51866;SDS011;52862;52.504;13.480;2023-02-17T11:48:01;34.07;;;17.90;;
51866;SDS011;52862;52.504;13.480;2023-02-17T11:50:39;32.27;;;16.00;;
51866;SDS011;52862;52.504;13.480;2023-02-17T11:53:17;31.67;;;14.23;;
51866;SDS011;52862;52.504;13.480;2023-02-17T11:55:53;33.17;;;15.67;;
51866;SDS011;52862;52.504;13.480;2023-02-17T11:58:34;29.93;;;16.00;;
51866;SDS011;52862;52.504;13.480;2023-02-17T12:01:16;27.23;;;15.13;;
51866;SDS011;52862;52.504;13.480;2023-02-17T12:04:11;26.70;;;13.03;;
51866;SDS011;52862;52.504;13.480;2023-02-17T12:06:57;24.30;;;13.30;;
51866;SDS011;52862;52.504;13.480;2023-02-17T12:09:42;31.10;;;13.70;;
51866;SDS011;52862;52.504;13.480;2023-02-17T12:12:21;25.77;;;13.17;;
51866;SDS011;52862;52.504;13.480;2023-02-17T12:14:57;30.63;;;14.07;;
51866;SDS011;52862;52.504;13.480;2023-02-17T12:17:34;27.30;;;14.30;;
51866;SDS011;52862;52.504;13.480;2023-02-17T12:20:15;37.60;;;14.43;;
51866;SDS011;52862;52.504;13.480;2023-02-17T12:22:59;23.87;;;12.93;;
51866;SDS011;52862;52.504;13.480;2023-02-17T12:25:36;22.47;;;12.50;;
51866;SDS011;52862;52.504;13.480;2023-02-17T12:28:09;25.00;;;13.17;;
51866;SDS011;52862;52.504;13.480;2023-02-17T12:30:54;22.27;;;12.60;;
51866;SDS011;52862;52.504;13.480;2023-02-17T12:33:33;21.37;;;11.60;;
51866;SDS011;52862;52.504;13.480;2023-02-17T12:36:09;20.60;;;11.93;;
51866;SDS011;52862;52.504;13.480;2023-02-17T12:38:38;19.37;;;10.47;;
51866;SDS011;52862;52.504;13.480;2023-02-17T12:41:09;19.23;;;10.37;;
51866;SDS011;52862;52.504;13.480;2023-02-17T12:43:41;23.73;;;11.53;;
51866;SDS011;52862;52.504;13.480;2023-02-17T12:46:14;19.80;;;10.30;;
51866;SDS011;52862;52.504;13.480;2023-02-17T12:48:43;21.50;;;10.13;;
51866;SDS011;52862;52.504;13.480;2023-02-17T12:51:18;21.03;;;10.47;;
51866;SDS011;52862;52.504;13.480;2023-02-17T12:53:49;14.70;;;8.37;;
51866;SDS011;52862;52.504;13.480;2023-02-17T12:59:31;18.00;;;8.83;;
51866;SDS011;52862;52.504;13.480;2023-02-17T13:01:59;16.00;;;9.30;;
51866;SDS011;52862;52.504;13.480;2023-02-17T13:04:28;13.30;;;8.17;;
51866;SDS011;52862;52.504;13.480;2023-02-17T13:07:07;18.83;;;9.80;;
51866;SDS011;52862;52.504;13.480;2023-02-17T13:09:59;12.73;;;8.70;;
51866;SDS011;52862;52.504;13.480;2023-02-17T13:12:34;16.27;;;8.40;;
51866;SDS011;52862;52.504;13.480;2023-02-17T13:15:09;18.40;;;8.40;;
51866;SDS011;52862;52.504;13.480;2023-02-17T13:17:53;17.83;;;9.43;;
51866;SDS011;52862;52.504;13.480;2023-02-17T13:20:36;20.27;;;8.60;;
51866;SDS011;52862;52.504;13.480;2023-02-17T13:23:09;15.67;;;7.83;;
51866;SDS011;52862;52.504;13.480;2023-02-17T13:25:38;16.23;;;7.57;;
51866;SDS011;52862;52.504;13.480;2023-02-17T13:28:16;16.97;;;7.63;;
51866;SDS011;52862;52.504;13.480;2023-02-17T13:31:09;12.83;;;6.37;;
51866;SDS011;52862;52.504;13.480;2023-02-17T13:33:39;15.40;;;8.27;;
51866;SDS011;52862;52.504;13.480;2023-02-17T13:36:15;13.93;;;8.00;;
51866;SDS011;52862;52.504;13.480;2023-02-17T13:38:52;15.60;;;7.33;;
51866;SDS011;52862;52.504;13.480;2023-02-17T13:41:21;18.80;;;7.23;;
51866;SDS011;52862;52.504;13.480;2023-02-17T13:43:48;13.43;;;7.20;;
51866;SDS011;52862;52.504;13.480;2023-02-17T13:46:16;12.43;;;6.00;;
51866;SDS011;52862;52.504;13.480;2023-02-17T13:48:56;14.10;;;6.93;;
51866;SDS011;52862;52.504;13.480;2023-02-17T13:51:28;14.53;;;6.67;;
51866;SDS011;52862;52.504;13.480;2023-02-17T13:53:56;11.17;;;5.40;;
51866;SDS011;52862;52.504;13.480;2023-02-17T13:56:31;11.80;;;6.03;;
51866;SDS011;52862;52.504;13.480;2023-02-17T13:59:08;12.50;;;6.07;;
51866;SDS011;52862;52.504;13.480;2023-02-17T14:01:37;8.43;;;3.83;;
51866;SDS011;52862;52.504;13.480;2023-02-17T14:04:16;13.37;;;6.10;;
51866;SDS011;52862;52.504;13.480;2023-02-17T14:06:46;11.93;;;5.13;;
51866;SDS011;52862;52.504;13.480;2023-02-17T14:09:23;12.63;;;6.37;;
51866;SDS011;52862;52.504;13.480;2023-02-17T14:11:52;10.83;;;4.50;;
51866;SDS011;52862;52.504;13.480;2023-02-17T14:14:21;9.57;;;4.87;;
51866;SDS011;52862;52.504;13.480;2023-02-17T14:16:56;10.50;;;5.50;;
51866;SDS011;52862;52.504;13.480;2023-02-17T14:19:25;10.40;;;5.63;;
51866;SDS011;52862;52.504;13.480;2023-02-17T14:21:59;8.20;;;4.17;;
51866;SDS011;52862;52.504;13.480;2023-02-17T14:24:27;5.40;;;3.63;;
51866;SDS011;52862;52.504;13.480;2023-02-17T14:26:56;16.57;;;6.07;;
51866;SDS011;52862;52.504;13.480;2023-02-17T14:29:25;7.93;;;4.63;;
51866;SDS011;52862;52.504;13.480;2023-02-17T14:32:04;8.70;;;4.30;;
51866;SDS011;52862;52.504;13.480;2023-02-17T14:34:31;10.33;;;5.10;;
51866;SDS011;52862;52.504;13.480;2023-02-17T14:37:06;9.07;;;5.17;;